createdAt,value
2018-10-01T00:01:41.795Z,70.59
2018-10-01T00:04:09.976Z,70.61
2018-10-01T00:06:38.239Z,71.06
2018-10-01T00:09:07.695Z,70.62
2018-10-01T00:11:35.940Z,71.25
2018-10-01T00:14:04.136Z,71.19
2018-10-01T00:16:32.341Z,70.65
2018-10-01T00:19:00.506Z,71.41
2018-10-01T00:21:34.579Z,71.39
2018-10-01T00:24:02.870Z,71.85
2018-10-01T00:26:31.714Z,70.88
2018-10-01T00:28:59.892Z,71.32
2018-10-01T00:31:28.098Z,71.22
2018-10-01T00:33:56.510Z,71.45
2018-10-01T00:36:24.723Z,71.48
2018-10-01T00:38:52.974Z,72.10
2018-10-01T00:41:21.142Z,72.07
2018-10-01T00:43:49.398Z,70.98
2018-10-01T00:46:17.541Z,71.27
2018-10-01T00:48:45.744Z,71.50
2018-10-01T00:51:13.973Z,71.45
2018-10-01T00:53:42.112Z,71.72
2018-10-01T00:56:10.330Z,71.03
2018-10-01T00:58:38.538Z,71.37
2018-10-01T01:01:07.032Z,70.31
2018-10-01T01:03:35.185Z,70.89
2018-10-01T01:06:03.804Z,70.99
2018-10-01T01:08:31.937Z,71.23
2018-10-01T01:11:00.368Z,71.19
2018-10-01T01:13:28.699Z,71.34
2018-10-01T01:15:56.876Z,70.83
2018-10-01T01:18:25.259Z,70.99
2018-10-01T01:20:53.420Z,70.34
2018-10-01T01:23:21.755Z,70.41
2018-10-01T01:25:51.995Z,69.59
2018-10-01T01:28:20.150Z,69.35
2018-10-01T01:30:48.321Z,68.83
2018-10-01T01:33:16.450Z,68.22
2018-10-01T01:35:44.861Z,67.98
2018-10-01T01:38:13.063Z,67.19
2018-10-01T01:40:41.238Z,67.27
2018-10-01T01:43:09.657Z,68.05
2018-10-01T01:45:37.887Z,67.21
2018-10-01T01:48:06.363Z,67.08
2018-10-01T01:50:34.558Z,67.16
2018-10-01T01:53:07.724Z,66.62
2018-10-01T01:55:35.893Z,66.93
2018-10-01T01:58:04.051Z,66.67
2018-10-01T02:00:32.307Z,65.37
2018-10-01T02:03:00.492Z,64.77
2018-10-01T02:05:28.745Z,65.54
2018-10-01T02:07:56.996Z,65.79
2018-10-01T02:10:25.228Z,64.72
2018-10-01T02:12:53.489Z,64.69
2018-10-01T02:15:21.770Z,64.59
2018-10-01T02:17:49.944Z,64.46
2018-10-01T02:20:18.130Z,64.65
2018-10-01T02:22:46.475Z,65.26
2018-10-01T02:25:14.640Z,64.24
2018-10-01T02:27:42.896Z,63.54
2018-10-01T02:30:11.071Z,63.50
2018-10-01T02:32:39.233Z,63.81
2018-10-01T02:35:07.436Z,64.99
2018-10-01T02:37:35.629Z,65.33
2018-10-01T02:40:04.084Z,64.67
2018-10-01T02:42:32.269Z,65.01
2018-10-01T02:45:00.423Z,65.35
2018-10-01T02:47:28.546Z,65.11
2018-10-01T02:49:56.738Z,65.46
2018-10-01T02:52:30.677Z,65.37
2018-10-01T02:54:59.124Z,66.74
2018-10-01T02:57:27.300Z,67.00
2018-10-01T02:59:55.438Z,67.05
2018-10-01T03:02:24.012Z,66.81
2018-10-01T03:04:52.275Z,67.33
2018-10-01T03:07:20.392Z,67.94
2018-10-01T03:09:48.560Z,68.50
2018-10-01T03:12:16.733Z,69.49
2018-10-01T03:14:44.890Z,69.40
2018-10-01T03:17:13.135Z,69.02
2018-10-01T03:19:41.323Z,69.15
2018-10-01T03:22:09.437Z,69.33
2018-10-01T03:24:37.738Z,69.47
2018-10-01T03:27:05.909Z,70.06
2018-10-01T03:29:34.161Z,70.45
2018-10-01T03:32:02.401Z,70.49
2018-10-01T03:34:30.675Z,71.32
2018-10-01T03:36:58.938Z,71.11
2018-10-01T03:39:27.148Z,70.58
2018-10-01T03:41:55.343Z,71.31
2018-10-01T03:44:24.462Z,71.11
2018-10-01T03:46:52.636Z,71.67
2018-10-01T03:49:20.907Z,72.04
2018-10-01T03:51:49.195Z,72.22
2018-10-01T03:54:17.546Z,72.56
2018-10-01T03:56:45.678Z,72.69
2018-10-01T03:59:13.910Z,72.70
2018-10-01T04:01:48.018Z,72.61
2018-10-01T04:04:16.464Z,72.63
2018-10-01T04:06:44.684Z,72.74
2018-10-01T04:09:12.906Z,72.85
2018-10-01T04:11:41.079Z,72.97
2018-10-01T04:14:09.302Z,73.71
2018-10-01T04:16:37.434Z,73.67
2018-10-01T04:19:05.636Z,73.21
2018-10-01T04:21:33.804Z,72.50
2018-10-01T04:24:01.998Z,73.68
2018-10-01T04:26:30.152Z,73.75
2018-10-01T04:28:58.368Z,73.31
2018-10-01T04:31:26.552Z,72.92
2018-10-01T04:33:54.916Z,72.35
2018-10-01T04:36:23.082Z,72.44
2018-10-01T04:38:51.302Z,72.27
2018-10-01T04:41:19.546Z,72.57
2018-10-01T04:43:47.824Z,72.69
2018-10-01T04:46:16.029Z,72.05
2018-10-01T04:48:44.158Z,72.43
2018-10-01T04:51:12.362Z,72.46
2018-10-01T04:53:40.442Z,72.73
2018-10-01T04:56:08.654Z,72.87
2018-10-01T04:58:37.088Z,73.08
2018-10-01T05:01:05.506Z,72.55
2018-10-01T05:03:33.637Z,73.21
2018-10-01T05:06:01.888Z,72.82
2018-10-01T05:08:30.075Z,73.28
2018-10-01T05:10:58.512Z,73.25
2018-10-01T05:13:26.700Z,72.59
2018-10-01T05:15:54.887Z,72.13
2018-10-01T05:18:23.003Z,71.70
2018-10-01T05:20:51.123Z,72.52
2018-10-01T05:23:19.281Z,71.55
2018-10-01T05:25:47.651Z,71.32
2018-10-01T05:28:16.115Z,70.76
2018-10-01T05:30:44.329Z,71.09
2018-10-01T05:33:12.499Z,70.53
2018-10-01T05:35:40.893Z,70.78
2018-10-01T05:38:09.012Z,70.83
2018-10-01T05:40:37.485Z,70.33
2018-10-01T05:43:05.771Z,70.06
2018-10-01T05:45:34.185Z,69.39
2018-10-01T05:48:02.292Z,69.85
2018-10-01T05:50:30.594Z,68.65
2018-10-01T05:52:58.722Z,68.30
2018-10-01T05:55:26.999Z,68.17
2018-10-01T05:57:55.210Z,67.12
2018-10-01T06:00:23.452Z,67.15
2018-10-01T06:02:51.676Z,67.80
2018-10-01T06:05:19.850Z,67.63
2018-10-01T06:07:48.026Z,66.28
2018-10-01T06:10:16.263Z,66.19
2018-10-01T06:12:45.317Z,65.66
2018-10-01T06:15:13.552Z,64.52
2018-10-01T06:17:41.779Z,64.56
2018-10-01T06:20:10.628Z,64.08
2018-10-01T06:22:39.034Z,62.80
2018-10-01T06:25:07.376Z,61.47
2018-10-01T06:27:36.519Z,60.82
2018-10-01T06:30:04.772Z,60.05
2018-10-01T06:32:32.993Z,59.79
2018-10-01T06:35:02.213Z,59.44
2018-10-01T06:37:30.493Z,59.01
2018-10-01T06:39:58.729Z,60.14
2018-10-01T06:42:26.829Z,61.11
2018-10-01T06:44:54.987Z,59.48
2018-10-01T06:47:23.285Z,59.05
2018-10-01T06:49:51.730Z,57.69
2018-10-01T06:52:19.900Z,58.22
2018-10-01T06:54:48.451Z,57.39
2018-10-01T06:57:16.640Z,56.80
2018-10-01T06:59:44.796Z,57.07
2018-10-01T07:02:13.088Z,56.79
2018-10-01T07:04:41.393Z,57.69
2018-10-01T07:07:09.594Z,57.35
2018-10-01T07:09:38.592Z,56.83
2018-10-01T07:12:06.772Z,56.79
2018-10-01T07:14:34.901Z,55.61
2018-10-01T07:17:03.162Z,56.14
2018-10-01T07:19:31.231Z,54.94
2018-10-01T07:21:59.424Z,54.77
2018-10-01T07:24:27.796Z,54.51
2018-10-01T07:26:55.969Z,54.30
2018-10-01T07:29:24.223Z,53.75
2018-10-01T07:31:52.459Z,53.73
2018-10-01T07:34:20.732Z,53.77
2018-10-01T07:36:48.957Z,52.93
2018-10-01T07:39:17.243Z,52.91
2018-10-01T07:41:45.569Z,52.79
2018-10-01T07:44:13.787Z,51.47
2018-10-01T07:46:42.021Z,50.49
2018-10-01T07:49:10.164Z,49.95
2018-10-01T07:51:38.463Z,49.28
2018-10-01T07:54:07.019Z,48.61
2018-10-01T07:56:35.228Z,48.60
2018-10-01T07:59:03.567Z,49.19
2018-10-01T08:01:31.817Z,49.56
2018-10-01T08:04:00.104Z,49.64
2018-10-01T08:06:28.363Z,49.61
2018-10-01T08:08:56.596Z,50.10
2018-10-01T08:11:24.912Z,50.31
2018-10-01T08:13:53.079Z,50.35
2018-10-01T08:16:21.332Z,50.02
2018-10-01T08:18:49.596Z,47.76
2018-10-01T08:21:17.824Z,46.44
2018-10-01T08:23:46.224Z,46.15
2018-10-01T08:26:15.049Z,45.47
2018-10-01T08:28:43.158Z,45.22
2018-10-01T08:31:11.456Z,44.93
2018-10-01T08:33:41.962Z,44.44
2018-10-01T08:36:10.286Z,44.74
2018-10-01T08:38:38.591Z,44.22
2018-10-01T08:41:06.856Z,43.99
2018-10-01T08:43:35.186Z,43.72
2018-10-01T08:46:03.489Z,43.67
2018-10-01T08:48:33.785Z,43.50
2018-10-01T08:51:07.548Z,42.22
2018-10-01T08:53:41.887Z,41.89
2018-10-01T08:56:10.429Z,42.03
2018-10-01T08:58:38.659Z,42.35
2018-10-01T09:01:07.030Z,42.64
2018-10-01T09:03:35.164Z,41.58
2018-10-01T09:06:03.425Z,42.83
2018-10-01T09:08:31.614Z,42.65
2018-10-01T09:10:59.812Z,43.55
2018-10-01T09:13:28.045Z,43.38
2018-10-01T09:15:56.902Z,43.10
2018-10-01T09:18:25.787Z,42.53
2018-10-01T09:20:53.990Z,41.53
2018-10-01T09:23:22.877Z,41.96
2018-10-01T09:25:51.041Z,42.09
2018-10-01T09:28:19.199Z,43.30
2018-10-01T09:30:47.477Z,42.93
2018-10-01T09:33:15.789Z,44.04
2018-10-01T09:35:44.005Z,44.91
2018-10-01T09:38:12.214Z,44.10
2018-10-01T09:40:40.428Z,42.73
2018-10-01T09:43:08.674Z,40.83
2018-10-01T09:45:36.943Z,37.88
2018-10-01T09:48:05.235Z,34.90
2018-10-01T09:50:33.454Z,33.04
2018-10-01T09:53:01.682Z,33.46
2018-10-01T09:55:29.929Z,32.13
2018-10-01T09:57:58.234Z,29.36
2018-10-01T10:00:32.149Z,29.67
2018-10-01T10:03:00.301Z,29.02
2018-10-01T10:05:28.479Z,29.14
2018-10-01T10:07:56.814Z,28.07
2018-10-01T10:10:25.124Z,26.55
2018-10-01T10:12:53.325Z,26.39
2018-10-01T10:15:21.501Z,27.10
2018-10-01T10:17:49.775Z,27.22
2018-10-01T10:20:17.992Z,28.03
2018-10-01T10:22:46.292Z,27.77
2018-10-01T10:25:14.532Z,29.95
2018-10-01T10:27:43.470Z,32.70
2018-10-01T10:30:11.643Z,35.78
2018-10-01T10:32:39.855Z,39.93
2018-10-01T10:35:08.056Z,45.70
2018-10-01T10:37:36.160Z,49.58
2018-10-01T10:40:04.580Z,52.96
2018-10-01T10:42:33.199Z,54.91
2018-10-01T10:45:01.324Z,55.79
2018-10-01T10:47:29.518Z,56.43
2018-10-01T10:49:58.541Z,58.28
2018-10-01T10:52:26.850Z,58.10
2018-10-01T10:54:55.018Z,57.16
2018-10-01T10:57:23.491Z,57.47
2018-10-01T10:59:52.320Z,58.36
2018-10-01T11:02:20.505Z,58.28
2018-10-01T11:04:48.681Z,59.46
2018-10-01T11:07:16.937Z,59.98
2018-10-01T11:09:46.071Z,61.24
2018-10-01T11:12:14.189Z,63.50
2018-10-01T11:14:42.388Z,64.22
2018-10-01T11:17:11.024Z,64.58
2018-10-01T11:19:39.292Z,65.65
2018-10-01T11:22:07.459Z,66.13
2018-10-01T11:24:35.831Z,65.62
2018-10-01T11:27:04.064Z,66.62
2018-10-01T11:29:33.559Z,63.90
2018-10-01T11:32:01.797Z,64.53
2018-10-01T11:34:30.833Z,62.81
2018-10-01T11:36:59.091Z,64.52
2018-10-01T11:39:27.258Z,66.30
2018-10-01T11:41:55.556Z,67.19
2018-10-01T11:44:23.687Z,66.21
2018-10-01T11:46:51.905Z,65.42
2018-10-01T11:49:20.856Z,64.19
2018-10-01T11:51:49.031Z,63.61
2018-10-01T11:54:17.289Z,60.95
2018-10-01T11:56:45.479Z,60.87
2018-10-01T11:59:13.793Z,61.22
2018-10-01T12:01:41.942Z,61.67
2018-10-01T12:04:10.233Z,61.61
2018-10-01T12:06:39.026Z,60.22
2018-10-01T12:09:10.196Z,60.01
2018-10-01T12:11:38.308Z,61.75
2018-10-01T12:14:06.554Z,61.71
2018-10-01T12:16:34.796Z,61.15
2018-10-01T12:19:03.249Z,64.74
2018-10-01T12:21:31.522Z,64.23
2018-10-01T12:24:00.610Z,63.16
2018-10-01T12:26:29.464Z,62.69
2018-10-01T12:28:57.699Z,62.67
2018-10-01T12:31:25.904Z,62.37
2018-10-01T12:33:54.255Z,60.93
2018-10-01T12:36:23.064Z,61.76
2018-10-01T12:38:51.344Z,59.33
2018-10-01T12:41:20.198Z,60.44
2018-10-01T12:43:48.464Z,60.63
2018-10-01T12:46:17.533Z,59.42
2018-10-01T12:48:45.988Z,58.94
2018-10-01T12:51:14.336Z,60.18
2018-10-01T12:53:42.565Z,61.37
2018-10-01T12:56:10.989Z,61.88
2018-10-01T12:58:39.125Z,62.56
2018-10-01T13:01:07.319Z,62.46
2018-10-01T13:03:35.484Z,61.64
2018-10-01T13:06:03.701Z,61.72
2018-10-01T13:08:31.791Z,60.53
2018-10-01T13:10:59.927Z,59.62
2018-10-01T13:13:28.188Z,59.87
2018-10-01T13:15:56.434Z,60.02
2018-10-01T13:18:24.667Z,58.19
2018-10-01T13:20:53.070Z,58.67
2018-10-01T13:23:22.077Z,58.94
2018-10-01T13:25:50.756Z,59.58
2018-10-01T13:28:18.949Z,59.39
2018-10-01T13:30:47.273Z,58.70
2018-10-01T13:33:15.503Z,61.34
2018-10-01T13:35:43.695Z,60.95
2018-10-01T13:38:12.001Z,62.60
2018-10-01T13:40:40.270Z,62.91
2018-10-01T13:43:08.433Z,63.27
2018-10-01T13:45:37.279Z,63.06
2018-10-01T13:48:05.628Z,62.12
2018-10-01T13:50:33.769Z,62.72
2018-10-01T13:53:01.926Z,61.67
2018-10-01T13:55:30.088Z,61.52
2018-10-01T13:57:59.049Z,60.84
2018-10-01T14:00:27.451Z,60.52
2018-10-01T14:02:55.616Z,59.53
2018-10-01T14:05:23.785Z,59.83
2018-10-01T14:07:51.969Z,59.04
2018-10-01T14:10:20.201Z,60.01
2018-10-01T14:12:48.455Z,59.71
2018-10-01T14:15:16.642Z,58.67
2018-10-01T14:17:44.853Z,58.62
2018-10-01T14:20:13.876Z,58.60
2018-10-01T14:22:42.143Z,58.64
2018-10-01T14:25:10.588Z,56.46
2018-10-01T14:27:39.351Z,56.01
2018-10-01T14:30:07.768Z,55.33
2018-10-01T14:32:37.153Z,56.01
2018-10-01T14:35:05.388Z,53.83
2018-10-01T14:37:33.600Z,53.94
2018-10-01T14:40:01.728Z,53.41
2018-10-01T14:42:29.976Z,54.23
2018-10-01T14:44:58.098Z,53.00
2018-10-01T14:47:26.226Z,53.40
2018-10-01T14:49:54.442Z,54.58
2018-10-01T14:52:22.654Z,53.05
2018-10-01T14:54:51.624Z,53.51
2018-10-01T14:57:19.768Z,54.68
2018-10-01T14:59:48.059Z,54.51
2018-10-01T15:02:16.219Z,54.20
2018-10-01T15:04:44.483Z,53.91
2018-10-01T15:07:12.675Z,54.44
2018-10-01T15:09:40.983Z,55.51
2018-10-01T15:12:09.209Z,55.52
2018-10-01T15:14:37.475Z,55.81
2018-10-01T15:17:05.703Z,55.94
2018-10-01T15:19:33.911Z,54.13
2018-10-01T15:22:02.185Z,54.91
2018-10-01T15:24:30.386Z,53.93
2018-10-01T15:26:58.473Z,54.13
2018-10-01T15:29:26.830Z,52.83
2018-10-01T15:31:54.990Z,52.80
2018-10-01T15:34:24.026Z,52.50
2018-10-01T15:36:52.183Z,51.28
2018-10-01T15:39:20.307Z,51.31
2018-10-01T15:41:48.651Z,51.43
2018-10-01T15:44:16.840Z,52.86
2018-10-01T15:46:45.992Z,53.27
2018-10-01T15:49:14.203Z,53.02
2018-10-01T15:51:42.341Z,53.66
2018-10-01T15:54:10.533Z,53.76
2018-10-01T15:56:39.531Z,54.88
2018-10-01T15:59:07.809Z,55.39
2018-10-01T16:01:35.982Z,55.74
2018-10-01T16:04:04.260Z,55.68
2018-10-01T16:06:32.499Z,55.24
2018-10-01T16:09:00.765Z,56.37
2018-10-01T16:11:29.088Z,57.79
2018-10-01T16:13:57.291Z,58.29
2018-10-01T16:16:25.959Z,57.68
2018-10-01T16:18:54.817Z,59.45
2018-10-01T16:21:23.853Z,59.94
2018-10-01T16:23:52.424Z,59.78
2018-10-01T16:26:20.579Z,60.31
2018-10-01T16:28:48.743Z,60.24
2018-10-01T16:31:17.096Z,60.53
2018-10-01T16:33:45.337Z,58.49
2018-10-01T16:36:13.623Z,58.38
2018-10-01T16:38:41.815Z,58.44
2018-10-01T16:41:10.011Z,56.93
2018-10-01T16:43:38.355Z,58.15
2018-10-01T16:46:06.615Z,57.55
2018-10-01T16:48:34.873Z,58.75
2018-10-01T16:51:03.073Z,59.38
2018-10-01T16:53:31.255Z,59.40
2018-10-01T16:55:59.459Z,59.61
2018-10-01T16:58:27.887Z,60.60
2018-10-01T17:00:56.140Z,60.28
2018-10-01T17:03:24.348Z,60.51
2018-10-01T17:05:58.831Z,60.94
2018-10-01T17:08:28.498Z,61.37
2018-10-01T17:10:56.890Z,61.50
2018-10-01T17:13:25.136Z,61.49
2018-10-01T17:15:54.856Z,61.71
2018-10-01T17:18:23.852Z,62.54
2018-10-01T17:20:52.198Z,62.65
2018-10-01T17:23:20.398Z,61.66
2018-10-01T17:25:49.136Z,61.90
2018-10-01T17:28:17.560Z,62.34
2018-10-01T17:30:45.715Z,62.43
2018-10-01T17:33:13.942Z,62.78
2018-10-01T17:35:42.198Z,62.46
2018-10-01T17:38:10.437Z,61.60
2018-10-01T17:40:39.234Z,61.37
2018-10-01T17:43:07.504Z,60.84
2018-10-01T17:45:35.778Z,61.20
2018-10-01T17:48:04.137Z,61.51
2018-10-01T17:50:32.584Z,61.98
2018-10-01T17:53:00.885Z,62.11
2018-10-01T17:55:29.101Z,62.48
2018-10-01T17:57:57.369Z,61.47
2018-10-01T18:00:25.720Z,62.05
2018-10-01T18:02:53.909Z,62.43
2018-10-01T18:05:22.108Z,62.67
2018-10-01T18:07:50.621Z,63.18
2018-10-01T18:10:18.811Z,63.69
2018-10-01T18:12:48.147Z,64.00
2018-10-01T18:15:16.362Z,64.25
2018-10-01T18:17:44.558Z,64.34
2018-10-01T18:20:12.939Z,63.89
2018-10-01T18:22:41.254Z,64.13
2018-10-01T18:25:09.541Z,64.65
2018-10-01T18:27:37.845Z,65.51
2018-10-01T18:30:06.682Z,65.26
2018-10-01T18:32:34.898Z,65.30
2018-10-01T18:35:03.351Z,66.06
2018-10-01T18:37:31.692Z,66.04
2018-10-01T18:40:00.629Z,66.41
2018-10-01T18:42:29.013Z,66.54
2018-10-01T18:44:57.231Z,67.77
2018-10-01T18:47:25.379Z,67.66
2018-10-01T18:49:53.588Z,67.73
2018-10-01T18:52:21.791Z,67.22
2018-10-01T18:54:50.097Z,68.11
2018-10-01T18:57:18.525Z,68.32
2018-10-01T18:59:46.820Z,68.15
2018-10-01T19:02:15.116Z,68.57
2018-10-01T19:04:43.362Z,69.09
2018-10-01T19:07:11.773Z,69.29
2018-10-01T19:09:40.075Z,70.62
2018-10-01T19:12:08.385Z,69.71
2018-10-01T19:14:36.562Z,69.45
2018-10-01T19:17:05.134Z,69.50
2018-10-01T19:19:33.326Z,70.53
2018-10-01T19:22:01.673Z,70.34
2018-10-01T19:24:30.688Z,69.51
2018-10-01T19:26:59.140Z,69.87
2018-10-01T19:29:27.277Z,69.61
2018-10-01T19:31:55.495Z,69.68
2018-10-01T19:34:23.824Z,69.61
2018-10-01T19:36:52.282Z,69.75
2018-10-01T19:39:20.747Z,70.10
2018-10-01T19:41:49.032Z,70.11
2018-10-01T19:44:17.173Z,69.30
2018-10-01T19:46:45.466Z,69.16
2018-10-01T19:49:13.745Z,68.80
2018-10-01T19:51:41.982Z,68.61
2018-10-01T19:54:10.157Z,66.00
2018-10-01T19:56:38.488Z,66.89
2018-10-01T19:59:07.399Z,66.04
2018-10-01T20:01:35.570Z,65.09
2018-10-01T20:04:04.461Z,65.33
2018-10-01T20:06:32.911Z,64.02
2018-10-01T20:09:01.323Z,64.39
2018-10-01T20:11:29.424Z,64.32
2018-10-01T20:13:57.635Z,63.80
2018-10-01T20:16:25.862Z,64.86
2018-10-01T20:18:54.473Z,64.11
2018-10-01T20:21:22.895Z,63.77
2018-10-01T20:23:51.069Z,64.48
2018-10-01T20:26:19.187Z,64.23
2018-10-01T20:28:47.517Z,64.43
2018-10-01T20:31:15.573Z,64.05
2018-10-01T20:33:43.813Z,65.00
2018-10-01T20:36:12.060Z,65.53
2018-10-01T20:38:40.219Z,64.79
2018-10-01T20:41:08.445Z,64.58
2018-10-01T20:43:36.679Z,65.21
2018-10-01T20:46:04.844Z,65.36
2018-10-01T20:48:33.154Z,65.69
2018-10-01T20:51:01.284Z,66.22
2018-10-01T20:53:29.526Z,65.88
2018-10-01T20:55:57.655Z,65.69
2018-10-01T20:58:25.774Z,65.45
2018-10-01T21:00:54.104Z,65.98
2018-10-01T21:03:22.402Z,66.34
2018-10-01T21:05:50.538Z,66.20
2018-10-01T21:08:18.728Z,66.49
2018-10-01T21:10:47.025Z,65.84
2018-10-01T21:13:15.219Z,66.67
2018-10-01T21:15:43.435Z,66.40
2018-10-01T21:18:11.675Z,67.27
2018-10-01T21:20:40.524Z,67.39
2018-10-01T21:23:08.735Z,67.49
2018-10-01T21:25:36.997Z,68.07
2018-10-01T21:28:05.344Z,68.23
2018-10-01T21:30:33.534Z,68.52
2018-10-01T21:33:01.738Z,68.93
2018-10-01T21:35:30.328Z,68.84
2018-10-01T21:37:58.494Z,69.12
2018-10-01T21:40:27.530Z,69.43
2018-10-01T21:42:55.978Z,69.44
2018-10-01T21:45:24.233Z,69.99
2018-10-01T21:47:52.511Z,69.42
2018-10-01T21:50:20.796Z,69.79
2018-10-01T21:52:48.948Z,70.78
2018-10-01T21:55:17.730Z,71.54
2018-10-01T21:57:46.584Z,72.29
2018-10-01T22:00:14.966Z,72.79
2018-10-01T22:02:43.194Z,73.18
2018-10-01T22:05:11.417Z,73.05
2018-10-01T22:07:39.606Z,74.41
2018-10-01T22:10:07.855Z,74.82
2018-10-01T22:12:36.080Z,75.32
2018-10-01T22:15:04.453Z,75.73
2018-10-01T22:17:32.611Z,75.85
2018-10-01T22:20:00.852Z,75.58
2018-10-01T22:22:29.028Z,76.53
2018-10-01T22:24:57.219Z,75.82
2018-10-01T22:27:25.576Z,76.69
2018-10-01T22:29:53.703Z,77.24
2018-10-01T22:32:21.919Z,77.18
2018-10-01T22:34:50.155Z,77.58
2018-10-01T22:37:18.419Z,77.67
2018-10-01T22:39:46.664Z,77.94
2018-10-01T22:42:14.934Z,78.35
2018-10-01T22:44:43.263Z,78.12
2018-10-01T22:47:12.287Z,79.14
2018-10-01T22:49:40.419Z,79.33
2018-10-01T22:52:08.615Z,78.91
2018-10-01T22:54:36.769Z,79.72
2018-10-01T22:57:05.350Z,79.72
2018-10-01T22:59:33.559Z,80.09
2018-10-01T23:02:01.879Z,80.69
2018-10-01T23:04:30.380Z,80.32
2018-10-01T23:06:59.335Z,80.05
2018-10-01T23:09:27.522Z,79.99
2018-10-01T23:11:55.829Z,80.19
2018-10-01T23:14:24.051Z,80.78
2018-10-01T23:16:52.203Z,80.07
2018-10-01T23:19:20.457Z,80.57
2018-10-01T23:21:48.735Z,80.19
2018-10-01T23:24:16.876Z,80.12
2018-10-01T23:26:45.024Z,79.46
2018-10-01T23:29:13.205Z,79.75
2018-10-01T23:31:41.383Z,79.81
2018-10-01T23:34:09.951Z,79.53
2018-10-01T23:36:38.063Z,79.12
2018-10-01T23:39:06.851Z,78.87
2018-10-01T23:41:35.115Z,77.85
2018-10-01T23:44:03.309Z,78.54
2018-10-01T23:46:32.176Z,78.35
2018-10-01T23:49:00.437Z,78.15
2018-10-01T23:51:28.727Z,77.88
2018-10-01T23:53:57.563Z,77.24
2018-10-01T23:56:25.852Z,77.06
2018-10-01T23:58:54.125Z,77.16
